createdAt,value
2017-10-31T00:01:48.724Z,3.70
2017-10-31T00:04:18.716Z,3.60
2017-10-31T00:06:46.296Z,3.60
2017-10-31T00:09:14.791Z,3.60
2017-10-31T00:11:42.373Z,3.50
2017-10-31T00:14:10.701Z,3.50
2017-10-31T00:16:38.289Z,3.50
2017-10-31T00:19:05.849Z,3.40
2017-10-31T00:21:33.433Z,3.40
2017-10-31T00:24:01.756Z,3.40
2017-10-31T00:26:29.315Z,3.40
2017-10-31T00:28:56.908Z,3.50
2017-10-31T00:31:24.468Z,3.60
2017-10-31T00:33:52.059Z,3.70
2017-10-31T00:36:20.380Z,3.90
2017-10-31T00:38:48.071Z,3.80
2017-10-31T00:41:17.372Z,3.90
2017-10-31T00:43:44.985Z,3.90
2017-10-31T00:46:12.552Z,3.90
2017-10-31T00:48:40.111Z,3.90
2017-10-31T00:51:07.692Z,4.00
2017-10-31T00:53:35.253Z,4.00
2017-10-31T00:56:02.944Z,4.00
2017-10-31T00:58:30.500Z,4.00
2017-10-31T01:00:58.080Z,4.10
2017-10-31T01:03:26.404Z,4.10
2017-10-31T01:05:53.984Z,4.00
2017-10-31T01:08:21.544Z,4.00
2017-10-31T01:10:49.129Z,4.00
2017-10-31T01:13:16.689Z,4.00
2017-10-31T01:15:44.271Z,4.00
2017-10-31T01:18:12.624Z,3.90
2017-10-31T01:20:40.460Z,3.90
2017-10-31T01:23:08.052Z,3.90
2017-10-31T01:25:35.621Z,3.90
2017-10-31T01:28:03.973Z,3.70
2017-10-31T01:30:31.528Z,3.70
2017-10-31T01:32:59.114Z,3.60
2017-10-31T01:35:26.675Z,3.50
2017-10-31T01:37:54.260Z,3.40
2017-10-31T01:40:22.584Z,3.40
2017-10-31T01:42:50.173Z,3.40
2017-10-31T01:45:17.735Z,3.40
2017-10-31T01:47:45.329Z,3.50
2017-10-31T01:50:13.816Z,3.60
2017-10-31T01:52:41.400Z,3.70
2017-10-31T01:55:08.964Z,3.70
2017-10-31T01:57:36.584Z,3.80
2017-10-31T02:00:04.927Z,3.90
2017-10-31T02:02:32.484Z,3.90
2017-10-31T02:05:00.066Z,3.90
2017-10-31T02:07:27.639Z,3.90
2017-10-31T02:09:55.995Z,3.90
2017-10-31T02:12:23.561Z,3.90
2017-10-31T02:14:51.488Z,3.80
2017-10-31T02:17:19.691Z,3.80
2017-10-31T02:19:48.111Z,3.70
2017-10-31T02:22:17.543Z,3.70
2017-10-31T02:24:45.148Z,3.70
2017-10-31T02:27:12.708Z,3.70
2017-10-31T02:29:40.652Z,3.80
2017-10-31T02:32:08.217Z,3.90
2017-10-31T02:34:35.799Z,4.00
2017-10-31T02:37:03.359Z,4.00
2017-10-31T02:39:30.973Z,4.10
2017-10-31T02:41:58.549Z,4.10
2017-10-31T02:44:26.107Z,4.10
2017-10-31T02:46:53.694Z,4.10
2017-10-31T02:49:21.260Z,4.10
2017-10-31T02:51:50.353Z,4.10
2017-10-31T02:54:17.912Z,4.10
2017-10-31T02:56:45.498Z,4.10
2017-10-31T02:59:15.049Z,4.20
2017-10-31T03:01:42.633Z,4.20
2017-10-31T03:04:10.197Z,4.20
2017-10-31T03:06:37.783Z,4.10
2017-10-31T03:09:05.348Z,4.20
2017-10-31T03:11:33.705Z,4.20
2017-10-31T03:14:01.268Z,4.20
2017-10-31T03:16:28.936Z,4.20
2017-10-31T03:18:57.264Z,4.20
2017-10-31T03:21:24.860Z,4.20
2017-10-31T03:23:52.424Z,4.20
2017-10-31T03:26:20.334Z,4.30
2017-10-31T03:28:47.896Z,4.30
2017-10-31T03:31:15.790Z,4.30
2017-10-31T03:33:43.351Z,4.30
2017-10-31T03:36:10.937Z,4.40
2017-10-31T03:38:38.495Z,4.40
2017-10-31T03:41:06.099Z,4.40
2017-10-31T03:43:34.429Z,4.40
2017-10-31T03:46:02.000Z,4.40
2017-10-31T03:48:29.591Z,4.40
2017-10-31T03:50:57.917Z,4.40
2017-10-31T03:53:25.506Z,4.40
2017-10-31T03:55:53.065Z,4.40
2017-10-31T03:58:20.656Z,4.40
2017-10-31T04:00:48.985Z,4.40
2017-10-31T04:03:16.715Z,4.40
2017-10-31T04:05:44.277Z,4.30
2017-10-31T04:08:11.869Z,4.30
2017-10-31T04:10:39.428Z,4.30
2017-10-31T04:13:07.020Z,4.30
2017-10-31T04:15:34.581Z,4.30
2017-10-31T04:18:03.678Z,4.30
2017-10-31T04:20:32.009Z,4.30
2017-10-31T04:22:59.609Z,4.30
2017-10-31T04:25:27.175Z,4.30
2017-10-31T04:27:54.736Z,4.30
2017-10-31T04:30:23.094Z,4.20
2017-10-31T04:32:50.651Z,4.20
2017-10-31T04:35:18.236Z,4.20
2017-10-31T04:37:46.563Z,4.00
2017-10-31T04:40:15.064Z,4.00
2017-10-31T04:42:42.624Z,4.00
2017-10-31T04:45:10.208Z,3.90
2017-10-31T04:47:39.284Z,3.90
2017-10-31T04:50:07.081Z,3.90
2017-10-31T04:52:34.640Z,3.80
2017-10-31T04:55:02.485Z,3.90
2017-10-31T04:57:30.169Z,3.90
2017-10-31T04:59:57.773Z,4.00
2017-10-31T05:02:25.340Z,3.90
2017-10-31T05:04:52.896Z,3.90
2017-10-31T05:07:20.480Z,3.90
2017-10-31T05:09:48.036Z,3.90
2017-10-31T05:12:17.663Z,4.00
2017-10-31T05:14:45.229Z,4.00
2017-10-31T05:17:12.815Z,4.00
2017-10-31T05:19:41.147Z,4.00
2017-10-31T05:22:09.148Z,4.00
2017-10-31T05:24:36.708Z,4.00
2017-10-31T05:27:04.272Z,4.00
2017-10-31T05:29:33.365Z,4.00
2017-10-31T05:32:00.923Z,4.00
2017-10-31T05:34:28.532Z,4.00
2017-10-31T05:36:56.087Z,4.00
2017-10-31T05:39:23.652Z,4.00
2017-10-31T05:41:51.240Z,4.00
2017-10-31T05:44:18.803Z,4.00
2017-10-31T05:46:46.388Z,4.00
2017-10-31T05:49:15.664Z,4.00
2017-10-31T05:51:43.252Z,3.90
2017-10-31T05:54:11.540Z,4.00
2017-10-31T05:56:39.892Z,3.90
2017-10-31T05:59:07.464Z,3.90
2017-10-31T06:01:35.137Z,3.90
2017-10-31T06:04:02.696Z,4.00
2017-10-31T06:06:30.283Z,3.90
2017-10-31T06:08:58.611Z,4.00
2017-10-31T06:11:26.209Z,4.00
2017-10-31T06:13:54.541Z,4.00
2017-10-31T06:16:22.124Z,4.00
2017-10-31T06:18:49.688Z,4.00
2017-10-31T06:21:17.271Z,4.00
2017-10-31T06:23:51.329Z,4.10
2017-10-31T06:26:24.494Z,4.00
2017-10-31T06:28:58.632Z,4.10
2017-10-31T06:31:31.947Z,4.10
2017-10-31T06:33:59.513Z,4.10
2017-10-31T06:36:27.292Z,4.10
2017-10-31T06:38:55.620Z,4.10
2017-10-31T06:41:23.524Z,4.10
2017-10-31T06:43:51.121Z,4.20
2017-10-31T06:46:19.447Z,4.20
2017-10-31T06:48:47.032Z,4.20
2017-10-31T06:51:16.412Z,4.30
2017-10-31T06:53:44.005Z,4.30
2017-10-31T06:56:11.658Z,4.30
2017-10-31T06:58:39.348Z,4.40
2017-10-31T07:01:07.681Z,4.50
2017-10-31T07:03:35.481Z,4.40
2017-10-31T07:06:03.814Z,4.50
2017-10-31T07:08:31.373Z,4.50
2017-10-31T07:10:58.981Z,4.50
2017-10-31T07:13:26.543Z,4.50
2017-10-31T07:15:54.136Z,4.50
2017-10-31T07:18:21.702Z,4.60
2017-10-31T07:20:49.288Z,4.70
2017-10-31T07:23:16.856Z,4.70
2017-10-31T07:25:44.441Z,4.70
2017-10-31T07:28:12.032Z,4.70
2017-10-31T07:30:40.365Z,4.70
2017-10-31T07:33:08.049Z,4.70
2017-10-31T07:35:35.612Z,4.80
2017-10-31T07:38:04.704Z,5.00
2017-10-31T07:40:32.268Z,5.00
2017-10-31T07:43:00.620Z,5.80
2017-10-31T07:45:28.193Z,5.70
2017-10-31T07:47:55.776Z,5.80
2017-10-31T07:50:24.108Z,5.70
2017-10-31T07:52:52.008Z,5.70
2017-10-31T07:55:19.567Z,5.60
2017-10-31T07:57:47.129Z,5.50
2017-10-31T08:00:15.747Z,5.50
2017-10-31T08:02:44.072Z,5.70
2017-10-31T08:05:11.944Z,5.70
2017-10-31T08:07:39.505Z,5.80
2017-10-31T08:10:07.092Z,6.10
2017-10-31T08:12:34.651Z,6.10
2017-10-31T08:15:02.240Z,6.00
2017-10-31T08:17:29.799Z,6.10
2017-10-31T08:19:57.437Z,6.30
2017-10-31T08:22:25.780Z,6.60
2017-10-31T08:24:53.472Z,6.60
2017-10-31T08:27:21.032Z,6.70
2017-10-31T08:29:48.628Z,6.70
2017-10-31T08:32:16.941Z,7.80
2017-10-31T08:34:44.508Z,9.40
2017-10-31T08:37:12.091Z,9.80
2017-10-31T08:39:39.656Z,10.20
2017-10-31T08:42:07.249Z,9.50
2017-10-31T08:44:34.876Z,9.50
2017-10-31T08:47:02.465Z,9.90
2017-10-31T08:49:30.030Z,10.50
2017-10-31T08:51:57.615Z,11.20
2017-10-31T08:54:25.176Z,12.20
2017-10-31T08:56:52.759Z,13.40
2017-10-31T08:59:20.338Z,13.70
2017-10-31T09:01:47.929Z,13.90
2017-10-31T09:04:16.415Z,13.30
2017-10-31T09:06:44.016Z,12.40
2017-10-31T09:09:11.583Z,12.10
2017-10-31T09:11:39.144Z,10.70
2017-10-31T09:14:06.728Z,9.80
2017-10-31T09:16:34.387Z,9.50
2017-10-31T09:19:01.976Z,10.00
2017-10-31T09:21:30.300Z,12.30
2017-10-31T09:23:57.888Z,12.30
2017-10-31T09:26:25.448Z,12.90
2017-10-31T09:28:53.036Z,13.80
2017-10-31T09:31:21.365Z,14.50
2017-10-31T09:33:49.763Z,14.50
2017-10-31T09:36:17.327Z,14.80
2017-10-31T09:38:44.890Z,13.60
2017-10-31T09:41:12.476Z,11.70
2017-10-31T09:43:40.801Z,11.30
2017-10-31T09:46:08.389Z,11.20
2017-10-31T09:48:35.952Z,10.20
2017-10-31T09:51:03.644Z,9.60
2017-10-31T09:53:31.204Z,9.20
2017-10-31T09:55:59.528Z,9.50
2017-10-31T09:58:27.107Z,9.50
2017-10-31T10:00:54.664Z,9.30
2017-10-31T10:03:22.246Z,9.10
2017-10-31T10:05:50.574Z,11.30
2017-10-31T10:08:18.161Z,11.30
2017-10-31T10:10:45.726Z,13.10
2017-10-31T10:13:14.723Z,14.30
2017-10-31T10:15:43.801Z,13.00
2017-10-31T10:18:11.389Z,13.00
2017-10-31T10:20:38.964Z,12.60
2017-10-31T10:23:07.336Z,12.20
2017-10-31T10:25:35.712Z,11.50
2017-10-31T10:28:03.277Z,11.50
2017-10-31T10:30:31.632Z,11.90
2017-10-31T10:32:59.197Z,11.90
2017-10-31T10:35:26.965Z,11.70
2017-10-31T10:37:55.293Z,14.70
2017-10-31T10:40:22.861Z,14.60
2017-10-31T10:42:50.444Z,15.30
2017-10-31T10:45:18.011Z,15.10
2017-10-31T10:47:45.596Z,14.00
2017-10-31T10:50:15.156Z,15.10
2017-10-31T10:52:42.757Z,15.10
2017-10-31T10:55:10.316Z,14.90
2017-10-31T10:57:37.900Z,13.70
2017-10-31T11:00:06.229Z,12.50
2017-10-31T11:02:33.833Z,12.50
2017-10-31T11:05:02.164Z,11.20
2017-10-31T11:07:29.759Z,11.20
2017-10-31T11:09:57.343Z,10.80
2017-10-31T11:12:25.668Z,10.10
2017-10-31T11:14:53.260Z,10.10
2017-10-31T11:17:20.820Z,9.80
2017-10-31T11:19:48.405Z,9.50
2017-10-31T11:22:16.652Z,9.40
2017-10-31T11:24:44.233Z,9.00
2017-10-31T11:27:12.568Z,8.60
2017-10-31T11:29:40.365Z,8.60
2017-10-31T11:32:08.024Z,8.50
2017-10-31T11:34:35.592Z,8.30
2017-10-31T11:37:03.943Z,8.30
2017-10-31T11:39:31.524Z,8.30
2017-10-31T11:41:59.109Z,8.40
2017-10-31T11:44:27.441Z,8.30
2017-10-31T11:46:55.029Z,8.20
2017-10-31T11:49:23.358Z,8.30
2017-10-31T11:51:50.940Z,8.20
2017-10-31T11:54:18.500Z,8.30
2017-10-31T11:56:46.085Z,8.30
2017-10-31T11:59:16.061Z,8.40
2017-10-31T12:01:43.644Z,8.40
2017-10-31T12:04:11.204Z,8.60
2017-10-31T12:06:38.789Z,8.60
2017-10-31T12:09:06.353Z,8.90
2017-10-31T12:11:34.724Z,8.90
2017-10-31T12:14:02.280Z,8.90
2017-10-31T12:16:30.640Z,8.80
2017-10-31T12:18:58.201Z,8.80
2017-10-31T12:21:25.804Z,8.90
2017-10-31T12:23:54.128Z,8.80
2017-10-31T12:26:21.687Z,8.70
2017-10-31T12:28:49.280Z,8.60
2017-10-31T12:31:16.944Z,8.60
2017-10-31T12:33:44.533Z,8.40
2017-10-31T12:36:13.803Z,8.50
2017-10-31T12:38:41.390Z,8.50
2017-10-31T12:41:09.717Z,9.00
2017-10-31T12:43:37.308Z,9.00
2017-10-31T12:46:06.378Z,9.30
2017-10-31T12:48:33.960Z,9.30
2017-10-31T12:51:01.528Z,9.50
2017-10-31T12:53:29.119Z,9.50
2017-10-31T12:55:56.676Z,9.40
2017-10-31T12:58:25.024Z,9.20
2017-10-31T13:00:52.584Z,9.20
2017-10-31T13:03:20.170Z,8.90
2017-10-31T13:05:48.512Z,8.70
2017-10-31T13:08:16.635Z,8.60
2017-10-31T13:10:44.195Z,8.60
2017-10-31T13:13:11.781Z,8.50
2017-10-31T13:15:39.339Z,8.40
2017-10-31T13:18:06.958Z,8.30
2017-10-31T13:20:35.281Z,8.20
2017-10-31T13:23:03.122Z,8.20
2017-10-31T13:25:32.279Z,8.20
2017-10-31T13:27:59.831Z,8.20
2017-10-31T13:30:27.973Z,8.30
2017-10-31T13:32:57.392Z,8.40
2017-10-31T13:35:25.557Z,8.30
2017-10-31T13:37:58.000Z,8.20
2017-10-31T13:40:26.102Z,8.20
2017-10-31T13:42:54.244Z,8.10
2017-10-31T13:45:22.596Z,8.20
2017-10-31T13:47:50.700Z,8.20
2017-10-31T13:50:18.441Z,8.20
2017-10-31T13:52:45.999Z,8.10
2017-10-31T13:55:15.276Z,8.20
2017-10-31T13:57:42.832Z,8.10
2017-10-31T14:00:10.884Z,8.10
2017-10-31T14:02:38.929Z,8.10
2017-10-31T14:05:07.844Z,8.00
2017-10-31T14:07:35.788Z,8.00
2017-10-31T14:10:04.625Z,8.00
2017-10-31T14:12:32.758Z,7.90
2017-10-31T14:15:00.315Z,7.90
2017-10-31T14:17:28.685Z,8.10
2017-10-31T14:19:57.212Z,8.10
2017-10-31T14:22:24.805Z,8.00
2017-10-31T14:24:52.540Z,8.10
2017-10-31T14:27:20.099Z,8.10
2017-10-31T14:29:47.670Z,8.00
2017-10-31T14:32:17.376Z,7.90
2017-10-31T14:34:44.960Z,7.90
2017-10-31T14:37:12.537Z,7.90
2017-10-31T14:39:40.892Z,7.80
2017-10-31T14:42:08.460Z,7.80
2017-10-31T14:44:36.025Z,7.80
2017-10-31T14:47:03.604Z,7.80
2017-10-31T14:49:31.951Z,7.60
2017-10-31T14:51:59.507Z,7.60
2017-10-31T14:54:27.374Z,7.60
2017-10-31T14:56:55.055Z,7.60
2017-10-31T14:59:22.624Z,7.60
2017-10-31T15:01:50.209Z,7.50
2017-10-31T15:04:17.836Z,7.50
2017-10-31T15:06:45.608Z,7.50
2017-10-31T15:09:15.272Z,7.50
2017-10-31T15:11:42.835Z,7.40
2017-10-31T15:14:10.660Z,7.40
2017-10-31T15:16:39.172Z,7.40
2017-10-31T15:19:06.784Z,7.40
2017-10-31T15:21:34.340Z,7.40
2017-10-31T15:24:01.936Z,7.40
2017-10-31T15:26:30.264Z,7.30
2017-10-31T15:28:57.844Z,7.30
2017-10-31T15:31:25.403Z,7.30
2017-10-31T15:33:52.988Z,7.30
2017-10-31T15:36:21.313Z,7.30
2017-10-31T15:38:48.900Z,7.30
2017-10-31T15:41:16.477Z,7.30
2017-10-31T15:43:44.061Z,7.20
2017-10-31T15:46:11.616Z,7.20
2017-10-31T15:48:39.969Z,7.20
2017-10-31T15:51:07.532Z,7.20
2017-10-31T15:53:35.135Z,7.10
2017-10-31T15:56:02.696Z,7.10
2017-10-31T15:58:30.255Z,7.10
2017-10-31T16:00:57.837Z,7.10
2017-10-31T16:03:25.398Z,7.00
2017-10-31T16:05:52.980Z,7.00
2017-10-31T16:08:20.540Z,7.10
2017-10-31T16:10:48.128Z,7.10
2017-10-31T16:13:17.169Z,7.10
2017-10-31T16:15:44.771Z,7.10
2017-10-31T16:18:14.760Z,7.10
2017-10-31T16:20:42.323Z,7.10
2017-10-31T16:23:09.913Z,7.10
2017-10-31T16:25:37.476Z,7.10
2017-10-31T16:28:05.829Z,7.10
2017-10-31T16:30:33.389Z,7.10
2017-10-31T16:33:00.975Z,7.10
2017-10-31T16:35:28.536Z,7.10
2017-10-31T16:37:56.144Z,7.10
2017-10-31T16:40:23.704Z,7.10
2017-10-31T16:42:51.585Z,7.10
2017-10-31T16:45:19.200Z,7.10
2017-10-31T16:47:47.533Z,7.10
2017-10-31T16:50:16.345Z,7.00
2017-10-31T16:52:44.008Z,7.10
2017-10-31T16:55:11.687Z,7.10
2017-10-31T16:57:40.022Z,7.10
2017-10-31T17:00:07.617Z,7.10
2017-10-31T17:02:35.185Z,7.10
2017-10-31T17:05:03.633Z,7.00
2017-10-31T17:07:31.225Z,7.00
2017-10-31T17:09:59.713Z,7.00
2017-10-31T17:12:28.048Z,7.10
2017-10-31T17:14:55.707Z,7.00
2017-10-31T17:17:23.330Z,7.10
2017-10-31T17:19:51.664Z,7.10
2017-10-31T17:22:19.376Z,7.10
2017-10-31T17:24:46.953Z,7.10
2017-10-31T17:27:16.107Z,7.10
2017-10-31T17:29:43.737Z,7.10
2017-10-31T17:32:11.304Z,7.10
2017-10-31T17:34:38.920Z,7.10
2017-10-31T17:37:06.496Z,7.10
2017-10-31T17:39:41.368Z,7.10
2017-10-31T17:42:09.040Z,7.00
2017-10-31T17:44:36.629Z,7.00
2017-10-31T17:47:05.045Z,7.00
2017-10-31T17:49:32.640Z,7.00
2017-10-31T17:52:00.492Z,7.00
2017-10-31T17:54:28.073Z,7.00
2017-10-31T17:56:57.147Z,7.00
2017-10-31T17:59:24.945Z,7.00
2017-10-31T18:01:53.277Z,7.00
2017-10-31T18:04:20.907Z,7.00
2017-10-31T18:06:48.544Z,7.00
2017-10-31T18:09:17.709Z,7.00
2017-10-31T18:11:45.301Z,7.00
2017-10-31T18:14:13.956Z,6.90
2017-10-31T18:16:41.808Z,7.00
2017-10-31T18:19:09.392Z,6.90
2017-10-31T18:21:36.957Z,7.00
2017-10-31T18:24:04.804Z,7.00
2017-10-31T18:26:32.400Z,7.00
2017-10-31T18:29:00.368Z,7.00
2017-10-31T18:31:27.928Z,6.90
2017-10-31T18:33:55.504Z,6.90
2017-10-31T18:36:23.860Z,6.80
2017-10-31T18:38:51.473Z,6.80
2017-10-31T18:41:19.032Z,6.80
2017-10-31T18:43:46.597Z,6.80
2017-10-31T18:46:16.454Z,6.80
2017-10-31T18:48:44.025Z,6.80
2017-10-31T18:51:11.617Z,6.80
2017-10-31T18:53:39.343Z,6.80
2017-10-31T18:56:07.726Z,6.80
2017-10-31T18:58:35.323Z,6.80
2017-10-31T19:01:02.908Z,6.70
2017-10-31T19:03:30.584Z,6.70
2017-10-31T19:05:58.210Z,6.80
2017-10-31T19:08:25.776Z,6.70
2017-10-31T19:10:53.370Z,6.70
2017-10-31T19:13:21.120Z,6.80
2017-10-31T19:15:48.713Z,6.70
2017-10-31T19:18:17.378Z,6.80
2017-10-31T19:20:44.975Z,6.80
2017-10-31T19:23:13.481Z,6.80
2017-10-31T19:25:42.111Z,6.80
2017-10-31T19:28:09.862Z,6.80
2017-10-31T19:30:37.451Z,6.80
2017-10-31T19:33:05.064Z,6.80
2017-10-31T19:35:32.656Z,6.80
2017-10-31T19:38:00.218Z,6.80
2017-10-31T19:40:27.808Z,6.80
2017-10-31T19:42:55.364Z,6.80
2017-10-31T19:45:22.954Z,6.80
2017-10-31T19:47:51.422Z,6.70
2017-10-31T19:50:19.859Z,6.70
2017-10-31T19:52:47.464Z,6.70
2017-10-31T19:55:17.020Z,6.70
2017-10-31T19:57:44.592Z,6.70
2017-10-31T20:00:12.184Z,6.70
2017-10-31T20:02:39.778Z,6.70
2017-10-31T20:05:07.344Z,6.70
2017-10-31T20:07:34.995Z,6.70
2017-10-31T20:10:03.325Z,6.70
2017-10-31T20:12:31.081Z,6.70
2017-10-31T20:14:58.668Z,6.70
2017-10-31T20:17:26.251Z,6.70
2017-10-31T20:19:54.595Z,6.70
2017-10-31T20:22:22.181Z,6.70
2017-10-31T20:24:49.745Z,6.70
2017-10-31T20:27:18.100Z,6.70
2017-10-31T20:29:45.659Z,6.70
2017-10-31T20:32:14.261Z,6.70
2017-10-31T20:34:41.833Z,6.70
2017-10-31T20:37:10.190Z,6.70
2017-10-31T20:39:37.757Z,6.70
2017-10-31T20:42:05.344Z,6.70
2017-10-31T20:44:33.677Z,6.70
2017-10-31T20:47:01.272Z,6.70
2017-10-31T20:49:29.608Z,6.70
2017-10-31T20:51:57.483Z,6.70
2017-10-31T20:54:25.052Z,6.70
2017-10-31T20:56:53.652Z,6.70
2017-10-31T20:59:21.313Z,6.70
2017-10-31T21:01:49.648Z,6.70
2017-10-31T21:04:17.245Z,6.70
2017-10-31T21:06:44.829Z,6.80
2017-10-31T21:09:14.270Z,6.80
2017-10-31T21:11:41.836Z,6.80
2017-10-31T21:14:09.424Z,6.80
2017-10-31T21:16:36.986Z,6.80
2017-10-31T21:19:05.345Z,6.70
2017-10-31T21:21:32.912Z,6.70
2017-10-31T21:24:00.521Z,6.70
2017-10-31T21:26:28.851Z,6.70
2017-10-31T21:28:56.408Z,6.70
2017-10-31T21:31:24.079Z,6.70
2017-10-31T21:33:51.649Z,6.70
2017-10-31T21:36:19.247Z,6.70
2017-10-31T21:38:46.832Z,6.70
2017-10-31T21:41:16.038Z,6.70
2017-10-31T21:43:43.636Z,6.70
2017-10-31T21:46:11.202Z,6.70
2017-10-31T21:48:38.785Z,6.70
2017-10-31T21:51:07.152Z,6.70
2017-10-31T21:53:34.717Z,6.60
2017-10-31T21:56:03.048Z,6.70
2017-10-31T21:58:30.632Z,6.70
2017-10-31T22:00:58.999Z,6.70
2017-10-31T22:03:26.581Z,6.70
2017-10-31T22:05:54.348Z,6.70
2017-10-31T22:08:22.140Z,6.70
2017-10-31T22:10:50.554Z,6.70
2017-10-31T22:13:18.173Z,6.70
2017-10-31T22:15:46.501Z,6.70
2017-10-31T22:18:15.708Z,6.70
2017-10-31T22:20:43.273Z,6.70
2017-10-31T22:23:11.980Z,6.70
2017-10-31T22:25:39.681Z,6.70
2017-10-31T22:28:07.388Z,6.60
2017-10-31T22:30:34.989Z,6.70
2017-10-31T22:33:03.019Z,6.70
2017-10-31T22:35:30.603Z,6.60
2017-10-31T22:37:58.534Z,6.70
2017-10-31T22:40:26.227Z,6.70
2017-10-31T22:42:53.812Z,6.60
2017-10-31T22:45:22.415Z,6.60
2017-10-31T22:47:50.016Z,6.50
2017-10-31T22:50:17.681Z,6.60
2017-10-31T22:52:45.280Z,6.50
2017-10-31T22:55:14.630Z,6.60
2017-10-31T22:57:42.267Z,6.50
2017-10-31T23:00:09.827Z,6.60
2017-10-31T23:02:37.515Z,6.50
2017-10-31T23:05:05.135Z,6.50
2017-10-31T23:07:33.507Z,6.60
2017-10-31T23:10:01.868Z,6.60
2017-10-31T23:12:29.459Z,6.60
2017-10-31T23:14:57.813Z,6.60
2017-10-31T23:17:25.441Z,6.60
2017-10-31T23:19:53.012Z,6.60
2017-10-31T23:22:20.600Z,6.50
2017-10-31T23:24:49.672Z,6.50
2017-10-31T23:27:17.360Z,6.60
2017-10-31T23:29:46.374Z,6.60
2017-10-31T23:32:16.024Z,6.60
2017-10-31T23:34:43.604Z,6.60
2017-10-31T23:37:11.217Z,6.60
2017-10-31T23:39:38.840Z,6.60
2017-10-31T23:42:06.400Z,6.70
2017-10-31T23:44:33.990Z,6.70
2017-10-31T23:47:02.316Z,6.70
2017-10-31T23:49:29.897Z,6.70
2017-10-31T23:51:57.459Z,6.70
2017-10-31T23:54:25.064Z,6.70
2017-10-31T23:56:52.688Z,6.70
2017-10-31T23:59:20.247Z,6.70
